Aeroporto :
LOGIN :

Iscrizione | Disclaimer

   EN    FR    IT 

 










Sommario :    VFR   VFR Marginale   IFR   IFR Intensivo   IFR Molto Intensivo
Visibilità : 
Base nubi : 
>= 8 km
>= 3000ft
5 / 8 km
1000 / 3000 ft
1500m / 5 km
500 / 1000 ft
800 / 1500m
200 / 500 ft
< 800m
< 200 ft
Simboli :   Temporali  Nebbia  Neve Forte  Precipitazioni Forti  Vento > 20 kt
SIGMETs :   Varie  Temporali  Ghiacco  Turbolenza  Onda orograficha  Ceneri Vulcaniche






- Altitudine del aeroporto : 116 ft
- Codice IATA : ISC


EGHE - Scilly Isles / St Mary's

ULTIMO METAR :
  • 211550Z 23027KT 9999 BKN018 11/07 Q1023

METARs OBSOLETI :
  • 211520Z 23028KT 9999 BKN020 11/07 Q1023
  • 211450Z 23026KT 9999 BKM018 11/08 Q1024
  • 211420Z 23026KT 9999 BKN018 11/07 Q1024
  • 211350Z 23027KT 9999 BKN018 11/07 Q1024
  • 211320Z 22026KT 9999 BKN018 11/08 Q1024
  • 211250Z 23025KT 9999 BKN020 11/07 Q1024

TAF TAF EGHE
Valido dal 21 a 15 ore il 21 a 17 ore UTC


211359Z 2115/2117 23030G40KT 9999 SCT025



MetMap, La meteo Aeronautica in un colpo d'occhio ! - Copyright ORBIFLY Dicembre 2007 - Disclaimer

ORBIFLY MET'MAP TEAM :

Programmazione e sviluppo : Alexandra Zaïnal
Concezione : Baudouin d'Aumeries
Aiuto per la programmazione : Marc-Olivier Méhu
Supporto tecnico e logistico : Manuel Goepfert
Aiuto per la traduzione : Arnaldo La Scala

Contatto : metmap@orbifly.com




FONTI E CREDITI :

   NOAA